A80 TRACON Summary / KATL TAF
ATL TRACON Summary:
Scattered showers and thunderstorms over N GA, including the northern portions of the TRACON, will diminish to isolated showers by 02-03z. Cells will move west to northwest at 15kts. Expect VFR conditions with FEW060 clouds early this evening and mostly clear skies overnight. Surface winds will be east at 4-8kts. Flight hazards in the TRACON airspace outside of convection: None expected.

Updated:8/27/2016 5:45 AM
ATL Terminal Aerodrome Forecast:

FTUS80 KATL 271124
KATL 271121Z 2712/2818 09004KT P6SM FEW060
     FM271400 09007KT P6SM SCT045
     FM271800 10010KT P6SM SCT060
     FM280100 08005KT P6SM FEW080
     FM281400 09007KT P6SM SCT045
ATL TRACON Area Remark:
HAZE EXPECTED E/W THRU 14Z.
Convective Gate Forecast / Collaborative Convective Forecast Product / Vertical Wind Profile
Convective Gate Forecast
AIRMETs & SIGMETS/ Southeast Radar loop / Satellite Image (click on image to enlarge)

Southeast Radar Loop

 



USA.gov is the U.S. government's official web portal to all federal, state and local government web resources and services.